Mount Charleston, Nevada
Current Conditions -  °F | °C
As of 11:56 PM on Sunday 21 Dec 2014 (Local Time) from KHND Reporting Station
Clear Clear  
Wind Chill: 50°   Ceiling: Unl
Heat Index: 50°   Visibility: 10mi
Dew Point: 38°   Wind: 9mph
Humidity: 63%   Direction: 220°SW
Pressure: 30.09"   Gusts: NA
Location:  35.8437°N, 115.134°W
Report Text: KHND 220756Z 22008KT 10SM CLR 10/03 A3009 RMK AO2 SLP188 T01000033 401280050
Loading
Personal Weather Stations






























Interactive Weather Map New forecast layout! Learn more

10-Day Weather Forecast

Advertisements
Track Severe Weather on mobile